This is the latest recevied weather packets stored in our database for station/object K8RLH. If no packets are shown the sender has not sent any weather packets the latest 10 day(s).
| Time | Temp. | Humidity | Pressure | Rain* | Wind** | Luminosity | Snow |
|---|---|---|---|---|---|---|---|
| 1777723397 | 13.33° C | 92% | 1014.8 hPa | 0 mm | - | 22 W/m² | - |
| 1777723095 | 13.33° C | 93% | 1014.7 hPa | 0 mm | - | 19 W/m² | - |
| 1777722792 | 13.33° C | 93% | 1014.5 hPa | 0 mm | - | 19 W/m² | - |
| 1777722488 | 13.33° C | 93% | 1014.3 hPa | 0 mm | - | 15 W/m² | - |
| 1777722184 | 13.33° C | 93% | 1014.1 hPa | 0 mm | - | 14 W/m² | - |
| 1777721882 | 13.33° C | 93% | 1014.6 hPa | 0 mm | - | 5 W/m² | - |
| 1777721580 | 13.89° C | 93% | 1014.3 hPa | 0 mm | - | 6 W/m² | - |
| 1777721277 | 13.89° C | 93% | 1014.1 hPa | 0 mm | - | 8 W/m² | - |
| 1777720975 | 13.33° C | 94% | 1013.8 hPa | 0 mm | - | 16 W/m² | - |
| 1777720672 | 13.33° C | 94% | 1014 hPa | 0 mm | - | 7 W/m² | - |
| 1777720369 | 13.33° C | 94% | 1014.1 hPa | 0 mm | - | 5 W/m² | - |
| 1777720066 | 13.33° C | 94% | 1013.5 hPa | 0 mm | - | 13 W/m² | - |
| 1777719764 | 13.33° C | 94% | 1013.3 hPa | 0 mm | - | 8 W/m² | - |
| 1777719462 | 13.33° C | 94% | 1013 hPa | 0 mm | - | 5 W/m² | - |
| 1777719158 | 13.33° C | 94% | 1013.1 hPa | 0 mm | - | 2 W/m² | - |
| 1777718856 | 13.33° C | 94% | 1013.3 hPa | 0 mm | - | 1 W/m² | - |
| 1777718553 | 13.33° C | 94% | 1013.5 hPa | 0 mm | - | 1 W/m² | - |
| 1777718251 | 13.33° C | 94% | 1013.5 hPa | 0 mm | - | 0 W/m² | - |
| 1777717948 | 13.33° C | 94% | 1013.3 hPa | 0 mm | - | 0 W/m² | - |
| 1777717645 | 13.33° C | 94% | 1013.2 hPa | 0 mm | - | 0 W/m² | - |
| 1777717341 | 13.33° C | 94% | 1013.2 hPa | 0 mm | - | 0 W/m² | - |
| 1777717040 | 13.33° C | 94% | 1013.3 hPa | 0 mm | - | 0 W/m² | - |
| 1777716738 | 13.33° C | 94% | 1013.2 hPa | 0 mm | - | 0 W/m² | - |
| 1777716436 | 13.33° C | 94% | 1013 hPa | 0 mm | - | 0 W/m² | - |
| 1777716134 | 13.33° C | 94% | 1012.9 hPa | 0 mm | - | 0 W/m² | - |
* Rain latest hour (hover to see other rain measurements)
** Current wind speed in m/s (hover to see current wind gust speed)